EDDS/STR METAR and TAF weather

Enter ICAO airport designator
Station Type Date Time Source
EDDS METAR 2021/04/13 23:20 UTC NOAA

EDDS 132320Z VRB01KT CAVOK M00/M05 Q1029


Station Type Date Time Source
EDDS Decoded METAR 2021/04/13 23:20 UTC NOAA

Stuttgart-Echterdingen, Germany (EDDS) 48-41N 009-13E 391M
Apr 13, 2021 - 07:20 PM EDT / 2021.04.13 2320 UTC
Wind: Variable at 1 MPH (1 KT):0
Visibility: greater than 7 mile(s):0
Temperature: 32 F (0 C)
Dew Point: 23 F (-5 C)
Relative Humidity: 69%
Pressure (altimeter): 30.39 in. Hg (1029 hPa)
ob: EDDS 132320Z VRB01KT CAVOK M00/M05 Q1029
cycle: 23

Station Type Date Time Source
EDDS TAF 2021/04/13 18:27 UTC NOAA

TAF EDDS 131700Z 1318/1418 32005KT 9999 FEW045
BECMG 1318/1320 VRB03KT
BECMG 1408/1410 01007KT PROB40
TEMPO 1411/1417 4000 SHRAGS SCT040CB

Example: see airport list